createdAt,value
2022-11-18T00:01:20.124Z,2.93
2022-11-18T00:03:48.618Z,3.37
2022-11-18T00:06:18.927Z,3.37
2022-11-18T00:08:47.754Z,2.97
2022-11-18T00:11:37.426Z,2.63
2022-11-18T00:14:21.030Z,2.80
2022-11-18T00:16:51.890Z,3.30
2022-11-18T00:19:20.805Z,2.90
2022-11-18T00:21:49.291Z,3.17
2022-11-18T00:24:17.612Z,3.03
2022-11-18T00:26:45.658Z,3.40
2022-11-18T00:29:14.231Z,3.03
2022-11-18T00:31:42.769Z,3.20
2022-11-18T00:34:14.309Z,2.73
2022-11-18T00:36:42.986Z,2.40
2022-11-18T00:39:12.358Z,2.23
2022-11-18T00:41:58.016Z,2.77
2022-11-18T00:44:26.559Z,3.00
2022-11-18T00:46:54.920Z,2.23
2022-11-18T00:49:24.709Z,2.83
2022-11-18T00:51:53.134Z,2.77
2022-11-18T00:54:22.336Z,2.93
2022-11-18T00:56:50.735Z,2.70
2022-11-18T00:59:19.561Z,2.40
2022-11-18T01:01:49.163Z,2.17
2022-11-18T01:04:17.913Z,2.87
2022-11-18T01:06:47.446Z,2.93
2022-11-18T01:09:16.150Z,2.70
2022-11-18T01:12:02.254Z,3.10
2022-11-18T01:14:30.624Z,2.30
2022-11-18T01:16:59.062Z,2.50
2022-11-18T01:19:27.789Z,2.50
2022-11-18T01:22:02.978Z,2.10
2022-11-18T01:24:31.659Z,2.10
2022-11-18T01:27:00.347Z,1.90
2022-11-18T01:29:28.717Z,2.60
2022-11-18T01:32:25.539Z,2.00
2022-11-18T01:34:45.611Z,2.00
2022-11-18T01:37:15.511Z,2.07
2022-11-18T01:39:44.012Z,1.80
2022-11-18T01:42:15.908Z,1.97
2022-11-18T01:45:00.886Z,2.10
2022-11-18T01:47:30.409Z,1.90
2022-11-18T01:50:00.232Z,1.90
2022-11-18T01:52:30.450Z,2.40
2022-11-18T01:55:02.943Z,2.30
2022-11-18T01:57:32.456Z,2.40
2022-11-18T02:00:03.844Z,3.00
2022-11-18T02:02:33.041Z,2.90
2022-11-18T02:05:02.677Z,2.90
2022-11-18T02:07:33.315Z,2.27
2022-11-18T02:10:04.256Z,2.37
2022-11-18T02:12:32.831Z,2.63
2022-11-18T02:15:01.751Z,2.53
2022-11-18T02:17:35.058Z,2.63
2022-11-18T02:20:22.253Z,2.30
2022-11-18T02:23:07.255Z,2.40
2022-11-18T02:25:39.219Z,2.60
2022-11-18T02:28:25.431Z,2.10
2022-11-18T02:30:58.434Z,2.73
2022-11-18T02:33:28.433Z,2.37
2022-11-18T02:35:58.902Z,2.17
2022-11-18T02:38:30.083Z,2.43
2022-11-18T02:41:00.384Z,2.37
2022-11-18T02:43:30.713Z,1.97
2022-11-18T02:46:04.232Z,2.27
2022-11-18T02:48:34.636Z,2.10
2022-11-18T02:51:03.854Z,1.80
2022-11-18T02:53:33.789Z,2.10
2022-11-18T02:56:02.982Z,2.00
2022-11-18T02:58:31.087Z,1.93
2022-11-18T03:01:02.169Z,2.30
2022-11-18T03:03:31.539Z,2.10
2022-11-18T03:06:06.693Z,2.30
2022-11-18T03:08:37.716Z,2.70
2022-11-18T03:11:10.506Z,2.23
2022-11-18T03:13:54.337Z,2.30
2022-11-18T03:16:26.503Z,2.60
2022-11-18T03:18:57.184Z,2.47
2022-11-18T03:21:26.895Z,2.93
2022-11-18T03:23:58.226Z,2.60
2022-11-18T03:26:27.554Z,3.07
2022-11-18T03:28:58.287Z,2.80
2022-11-18T03:31:30.335Z,2.90
2022-11-18T03:33:59.702Z,2.87
2022-11-18T03:36:31.533Z,2.83
2022-11-18T03:39:01.968Z,3.00
2022-11-18T03:41:32.045Z,2.73
2022-11-18T03:44:03.197Z,3.07
2022-11-18T03:46:37.516Z,2.83
2022-11-18T03:49:07.214Z,3.00
2022-11-18T03:51:38.831Z,2.73
2022-11-18T03:54:13.039Z,2.70
2022-11-18T03:56:44.108Z,2.97
2022-11-18T03:59:15.448Z,2.90
2022-11-18T04:01:47.985Z,3.70
2022-11-18T04:04:16.614Z,3.17
2022-11-18T04:06:47.145Z,2.93
2022-11-18T04:09:17.011Z,3.30
2022-11-18T04:12:05.534Z,3.03
2022-11-18T04:14:34.874Z,3.07
2022-11-18T04:17:07.199Z,3.17
2022-11-18T04:19:35.578Z,2.93
2022-11-18T04:22:03.917Z,3.07
2022-11-18T04:24:32.269Z,3.10
2022-11-18T04:27:00.801Z,2.77
2022-11-18T04:29:28.979Z,3.00
2022-11-18T04:31:57.466Z,2.93
2022-11-18T04:34:27.432Z,3.53
2022-11-18T04:36:56.028Z,2.97
2022-11-18T04:39:24.521Z,3.20
2022-11-18T04:41:59.096Z,2.77
2022-11-18T04:44:28.341Z,3.03
2022-11-18T04:46:58.245Z,3.20
2022-11-18T04:49:28.226Z,3.63
2022-11-18T04:51:56.834Z,3.50
2022-11-18T04:54:26.171Z,7.00
2022-11-18T04:56:54.797Z,3.90
2022-11-18T04:59:26.083Z,2.50
2022-11-18T05:01:55.283Z,2.77
2022-11-18T05:04:24.617Z,2.77
2022-11-18T05:06:54.780Z,2.50
2022-11-18T05:09:28.689Z,3.30
2022-11-18T05:12:17.668Z,3.20
2022-11-18T05:14:50.166Z,3.67
2022-11-18T05:17:19.224Z,3.23
2022-11-18T05:19:47.614Z,2.87
2022-11-18T05:22:18.124Z,3.10
2022-11-18T05:24:46.600Z,2.83
2022-11-18T05:27:15.281Z,3.13
2022-11-18T05:29:43.708Z,3.07
2022-11-18T05:32:12.334Z,3.33
2022-11-18T05:34:41.488Z,2.87
2022-11-18T05:37:10.165Z,3.03
2022-11-18T05:39:39.974Z,3.37
2022-11-18T05:42:26.548Z,3.00
2022-11-18T05:44:58.431Z,3.93
2022-11-18T05:47:27.207Z,3.03
2022-11-18T05:49:55.559Z,3.63
2022-11-18T05:52:23.956Z,3.73
2022-11-18T05:54:53.805Z,4.00
2022-11-18T05:57:22.190Z,3.33
2022-11-18T05:59:50.523Z,2.87
2022-11-18T06:02:21.793Z,3.40
2022-11-18T06:04:51.605Z,3.67
2022-11-18T06:07:22.727Z,3.20
2022-11-18T06:09:52.610Z,3.27
2022-11-18T06:12:23.484Z,4.00
2022-11-18T06:14:53.363Z,3.27
2022-11-18T06:17:23.210Z,3.90
2022-11-18T06:19:51.590Z,3.50
2022-11-18T06:22:20.077Z,3.80
2022-11-18T06:24:48.529Z,3.97
2022-11-18T06:27:17.493Z,4.00
2022-11-18T06:29:47.253Z,4.20
2022-11-18T06:32:15.570Z,4.03
2022-11-18T06:34:43.959Z,4.43
2022-11-18T06:37:15.703Z,4.73
2022-11-18T06:39:44.370Z,4.30
2022-11-18T06:42:32.843Z,5.03
2022-11-18T06:45:02.399Z,5.43
2022-11-18T06:47:31.001Z,5.47
2022-11-18T06:49:59.028Z,5.23
2022-11-18T06:52:27.442Z,5.53
2022-11-18T06:54:55.794Z,14.88
2022-11-18T06:57:24.205Z,7.17
2022-11-18T06:59:52.247Z,6.40
2022-11-18T07:02:22.018Z,5.43
2022-11-18T07:04:50.570Z,5.20
2022-11-18T07:07:19.091Z,5.47
2022-11-18T07:09:47.516Z,5.53
2022-11-18T07:12:15.871Z,5.53
2022-11-18T07:14:44.234Z,5.07
2022-11-18T07:17:12.451Z,4.97
2022-11-18T07:19:42.078Z,5.13
2022-11-18T07:22:10.418Z,5.13
2022-11-18T07:24:39.038Z,5.03
2022-11-18T07:27:07.774Z,4.67
2022-11-18T07:29:36.160Z,4.93
2022-11-18T07:32:04.234Z,5.33
2022-11-18T07:34:32.617Z,5.43
2022-11-18T07:37:02.050Z,5.20
2022-11-18T07:39:30.393Z,5.53
2022-11-18T07:41:58.695Z,5.20
2022-11-18T07:44:27.035Z,5.73
2022-11-18T07:46:55.362Z,5.53
2022-11-18T07:49:23.692Z,5.47
2022-11-18T07:51:52.195Z,5.60
2022-11-18T07:54:21.977Z,6.47
2022-11-18T07:56:50.395Z,5.90
2022-11-18T07:59:18.909Z,6.03
2022-11-18T08:01:47.519Z,6.57
2022-11-18T08:04:16.641Z,6.80
2022-11-18T08:06:45.573Z,9.63
2022-11-18T08:09:13.820Z,12.17
2022-11-18T08:11:43.505Z,9.00
2022-11-18T08:14:11.878Z,7.27
2022-11-18T08:16:40.276Z,7.20
2022-11-18T08:19:08.488Z,8.30
2022-11-18T08:21:36.875Z,7.60
2022-11-18T08:24:05.316Z,7.00
2022-11-18T08:26:34.020Z,8.23
2022-11-18T08:29:03.918Z,8.10
2022-11-18T08:31:32.232Z,8.33
2022-11-18T08:34:02.251Z,8.43
2022-11-18T08:36:32.694Z,8.30
2022-11-18T08:39:02.398Z,7.37
2022-11-18T08:41:33.497Z,7.60
2022-11-18T08:44:03.515Z,8.07
2022-11-18T08:46:31.818Z,7.37
2022-11-18T08:49:00.520Z,7.67
2022-11-18T08:51:28.992Z,7.10
2022-11-18T08:53:57.776Z,7.33
2022-11-18T08:56:26.758Z,7.47
2022-11-18T08:58:55.406Z,7.97
2022-11-18T09:01:24.953Z,7.13
2022-11-18T09:03:53.336Z,7.17
2022-11-18T09:06:24.280Z,7.47
2022-11-18T09:08:52.614Z,7.20
2022-11-18T09:11:22.514Z,6.87
2022-11-18T09:16:43.872Z,6.50
2022-11-18T09:19:40.012Z,7.87
2022-11-18T09:22:00.270Z,7.07
2022-11-18T09:24:28.597Z,7.60
2022-11-18T09:26:56.679Z,7.87
2022-11-18T09:29:26.457Z,7.17
2022-11-18T09:31:56.425Z,7.37
2022-11-18T09:34:24.968Z,9.33
2022-11-18T09:36:56.056Z,8.10
2022-11-18T09:39:24.955Z,6.67
2022-11-18T09:42:06.905Z,8.33
2022-11-18T09:44:55.075Z,8.10
2022-11-18T09:47:28.324Z,6.93
2022-11-18T09:49:58.583Z,7.00
2022-11-18T09:52:35.469Z,6.40
2022-11-18T09:55:05.920Z,7.60
2022-11-18T09:57:39.819Z,7.80
2022-11-18T10:00:14.792Z,7.47
2022-11-18T10:03:01.501Z,9.07
2022-11-18T10:05:32.915Z,9.13
2022-11-18T10:08:07.027Z,8.60
2022-11-18T10:10:42.633Z,8.60
2022-11-18T10:13:19.658Z,10.17
2022-11-18T10:15:56.956Z,9.13
2022-11-18T10:18:58.621Z,8.93
2022-11-18T10:21:24.046Z,8.80
2022-11-18T10:23:54.814Z,8.43
2022-11-18T10:26:36.812Z,8.93
2022-11-18T10:29:07.546Z,8.67
2022-11-18T10:31:38.254Z,8.80
2022-11-18T10:34:11.446Z,9.30
2022-11-18T10:36:39.859Z,9.50
2022-11-18T10:39:13.936Z,9.43
2022-11-18T10:41:46.690Z,9.27
2022-11-18T10:44:34.423Z,7.50
2022-11-18T10:47:26.394Z,7.90
2022-11-18T10:49:57.634Z,7.20
2022-11-18T10:52:26.078Z,6.23
2022-11-18T10:55:10.744Z,7.50
2022-11-18T10:57:43.540Z,6.63
2022-11-18T11:00:40.163Z,7.00
2022-11-18T11:03:27.589Z,6.67
2022-11-18T11:06:30.755Z,7.37
2022-11-18T11:09:01.215Z,7.83
2022-11-18T11:11:32.272Z,7.90
2022-11-18T11:14:17.013Z,7.73
2022-11-18T11:16:53.108Z,8.30
2022-11-18T11:19:24.843Z,8.63
2022-11-18T11:21:54.370Z,8.23
2022-11-18T11:24:25.928Z,9.43
2022-11-18T11:30:19.351Z,9.47
2022-11-18T11:33:12.238Z,8.13
2022-11-18T11:35:49.665Z,8.67
2022-11-18T11:38:27.559Z,7.93
2022-11-18T11:41:04.946Z,8.53
2022-11-18T11:43:40.805Z,8.27
2022-11-18T11:46:20.648Z,8.07
2022-11-18T11:48:58.941Z,8.17
2022-11-18T11:51:37.906Z,8.30
2022-11-18T11:54:20.630Z,9.00
2022-11-18T11:56:54.455Z,8.43
2022-11-18T11:59:30.601Z,7.90
2022-11-18T12:02:38.049Z,7.90
2022-11-18T12:05:18.920Z,8.77
2022-11-18T12:07:52.498Z,7.60
2022-11-18T12:10:37.172Z,7.63
2022-11-18T12:13:16.962Z,7.63
2022-11-18T12:15:56.144Z,7.73
2022-11-18T12:18:33.043Z,7.47
2022-11-18T12:21:01.457Z,7.93
2022-11-18T12:23:31.130Z,7.70
2022-11-18T12:26:09.704Z,6.63
2022-11-18T12:28:41.194Z,7.50
2022-11-18T12:31:36.311Z,7.37
2022-11-18T12:34:18.866Z,7.37
2022-11-18T12:36:47.281Z,6.90
2022-11-18T12:39:58.378Z,7.60
2022-11-18T12:43:02.716Z,7.60
2022-11-18T12:45:58.710Z,8.27
2022-11-18T12:48:44.511Z,7.77
2022-11-18T12:51:44.897Z,7.23
2022-11-18T12:54:32.009Z,7.93
2022-11-18T12:57:02.717Z,7.73
2022-11-18T12:59:35.464Z,8.20
2022-11-18T13:02:19.267Z,9.30
2022-11-18T13:04:52.108Z,9.33
2022-11-18T13:07:39.453Z,8.77
2022-11-18T13:10:22.716Z,8.37
2022-11-18T13:12:52.368Z,8.50
2022-11-18T13:15:39.634Z,9.17
2022-11-18T13:18:12.706Z,8.97
2022-11-18T13:20:42.334Z,9.13
2022-11-18T13:23:45.609Z,8.73
2022-11-18T13:26:19.813Z,8.17
2022-11-18T13:29:07.573Z,9.20
2022-11-18T13:31:44.090Z,9.00
2022-11-18T13:34:18.937Z,8.73
2022-11-18T13:36:49.042Z,8.17
2022-11-18T13:39:23.601Z,11.10
2022-11-18T13:42:05.964Z,12.27
2022-11-18T13:44:36.238Z,12.60
2022-11-18T13:47:17.119Z,13.60
2022-11-18T13:49:52.225Z,12.70
2022-11-18T13:52:24.908Z,13.30
2022-11-18T13:54:55.075Z,12.93
2022-11-18T13:57:25.956Z,12.30
2022-11-18T13:59:56.122Z,11.40
2022-11-18T14:02:25.709Z,11.47
2022-11-18T14:04:59.277Z,11.63
2022-11-18T14:07:31.382Z,11.53
2022-11-18T14:10:02.013Z,11.73
2022-11-18T14:12:32.556Z,11.80
2022-11-18T14:15:21.504Z,11.60
2022-11-18T14:17:56.800Z,11.40
2022-11-18T14:20:26.454Z,10.70
2022-11-18T14:22:57.128Z,10.47
2022-11-18T14:25:28.991Z,12.13
2022-11-18T14:27:58.504Z,11.10
2022-11-18T14:30:32.813Z,10.47
2022-11-18T14:33:21.267Z,10.13
2022-11-18T14:35:52.008Z,10.50
2022-11-18T14:38:47.645Z,10.10
2022-11-18T14:41:13.063Z,9.70
2022-11-18T14:43:41.670Z,9.27
2022-11-18T14:46:16.210Z,9.70
2022-11-18T14:48:46.546Z,9.30
2022-11-18T14:51:15.452Z,9.70
2022-11-18T14:53:44.096Z,8.70
2022-11-18T14:56:19.038Z,9.90
2022-11-18T14:58:47.346Z,8.10
2022-11-18T15:01:16.015Z,8.23
2022-11-18T15:03:45.435Z,7.57
2022-11-18T15:06:15.021Z,6.97
2022-11-18T15:08:44.020Z,7.67
2022-11-18T15:11:12.407Z,7.30
2022-11-18T15:13:40.757Z,7.40
2022-11-18T15:16:16.832Z,7.07
2022-11-18T15:18:48.688Z,6.77
2022-11-18T15:21:17.091Z,7.43
2022-11-18T15:23:45.343Z,6.37
2022-11-18T15:26:19.903Z,6.63
2022-11-18T15:28:48.295Z,6.27
2022-11-18T15:31:16.941Z,6.90
2022-11-18T15:33:47.091Z,6.23
2022-11-18T15:36:16.362Z,7.40
2022-11-18T15:38:44.740Z,6.97
2022-11-18T15:41:17.684Z,7.37
2022-11-18T15:43:46.291Z,6.30
2022-11-18T15:46:14.778Z,6.97
2022-11-18T15:48:43.224Z,6.73
2022-11-18T15:51:12.990Z,6.73
2022-11-18T15:53:41.573Z,7.30
2022-11-18T15:56:16.769Z,6.83
2022-11-18T15:58:45.247Z,6.77
2022-11-18T16:01:13.902Z,6.60
2022-11-18T16:03:42.279Z,6.63
2022-11-18T16:06:10.823Z,6.77
2022-11-18T16:08:40.555Z,8.40
2022-11-18T16:11:26.663Z,7.07
2022-11-18T16:13:55.034Z,7.53
2022-11-18T16:16:25.292Z,6.97
2022-11-18T16:18:55.835Z,6.13
2022-11-18T16:21:24.348Z,6.80
2022-11-18T16:23:55.909Z,7.40
2022-11-18T16:26:24.216Z,6.27
2022-11-18T16:28:52.670Z,6.87
2022-11-18T16:31:38.962Z,6.47
2022-11-18T16:34:08.240Z,6.43
2022-11-18T16:36:36.580Z,6.43
2022-11-18T16:39:10.466Z,5.77
2022-11-18T16:41:39.178Z,6.53
2022-11-18T16:44:08.219Z,5.60
2022-11-18T16:46:37.677Z,6.23
2022-11-18T16:49:06.536Z,6.00
2022-11-18T16:51:35.812Z,6.07
2022-11-18T16:54:05.753Z,5.30
2022-11-18T16:56:37.080Z,5.03
2022-11-18T16:59:06.719Z,5.73
2022-11-18T17:01:35.739Z,5.43
2022-11-18T17:04:04.428Z,5.63
2022-11-18T17:06:33.432Z,5.13
2022-11-18T17:09:01.989Z,5.50
2022-11-18T17:11:30.435Z,5.57
2022-11-18T17:13:59.804Z,5.47
2022-11-18T17:16:28.655Z,5.80
2022-11-18T17:18:57.576Z,4.40
2022-11-18T17:21:26.343Z,5.13
2022-11-18T17:23:54.712Z,5.07
2022-11-18T17:26:24.219Z,5.03
2022-11-18T17:28:52.930Z,5.30
2022-11-18T17:31:24.229Z,4.30
2022-11-18T17:33:53.362Z,4.93
2022-11-18T17:36:22.880Z,4.60
2022-11-18T17:38:52.112Z,5.57
2022-11-18T17:41:38.783Z,4.63
2022-11-18T17:44:07.830Z,4.00
2022-11-18T17:46:38.542Z,4.47
2022-11-18T17:49:07.889Z,5.10
2022-11-18T17:51:35.878Z,4.07
2022-11-18T17:54:04.278Z,4.57
2022-11-18T17:56:32.630Z,3.70
2022-11-18T17:59:01.025Z,3.47
2022-11-18T18:01:29.595Z,4.50
2022-11-18T18:03:59.315Z,4.03
2022-11-18T18:06:27.939Z,3.80
2022-11-18T18:08:59.629Z,3.33
2022-11-18T18:11:28.720Z,3.47
2022-11-18T18:14:14.610Z,3.67
2022-11-18T18:16:44.016Z,3.83
2022-11-18T18:19:14.905Z,3.30
2022-11-18T18:21:43.352Z,3.80
2022-11-18T18:24:12.352Z,4.03
2022-11-18T18:26:40.764Z,3.60
2022-11-18T18:29:09.147Z,5.53
2022-11-18T18:31:38.385Z,3.77
2022-11-18T18:34:06.696Z,3.57
2022-11-18T18:36:36.288Z,3.30
2022-11-18T18:39:04.915Z,4.03
2022-11-18T18:41:33.318Z,3.47
2022-11-18T18:44:02.026Z,3.70
2022-11-18T18:46:30.351Z,2.83
2022-11-18T18:49:04.014Z,3.70
2022-11-18T18:51:33.463Z,3.07
2022-11-18T18:54:03.140Z,3.17
2022-11-18T18:56:31.512Z,3.23
2022-11-18T18:59:00.082Z,3.00
2022-11-18T19:01:28.814Z,2.70
2022-11-18T19:03:57.865Z,2.70
2022-11-18T19:06:51.704Z,3.13
2022-11-18T19:09:16.974Z,2.87
2022-11-18T19:12:02.940Z,3.17
2022-11-18T19:14:31.327Z,3.00
2022-11-18T19:20:06.543Z,2.50
2022-11-18T19:22:35.191Z,2.07
2022-11-18T19:25:04.963Z,2.30
2022-11-18T19:27:33.972Z,2.27
2022-11-18T19:30:02.280Z,2.07
2022-11-18T19:32:30.641Z,2.33
2022-11-18T19:34:58.945Z,2.17
2022-11-18T19:37:27.328Z,2.30
2022-11-18T19:39:55.655Z,2.57
2022-11-18T19:42:25.421Z,2.10
2022-11-18T19:44:53.776Z,2.20
2022-11-18T19:47:22.271Z,2.00
2022-11-18T19:49:50.600Z,2.10
2022-11-18T19:52:18.948Z,2.10
2022-11-18T19:54:47.333Z,1.97
2022-11-18T19:57:15.918Z,1.83
2022-11-18T19:59:46.384Z,2.10
2022-11-18T20:02:14.824Z,2.20
2022-11-18T20:05:03.543Z,1.80
2022-11-18T20:07:32.313Z,1.80
2022-11-18T20:10:00.677Z,1.60
2022-11-18T20:12:29.887Z,1.57
2022-11-18T20:14:59.339Z,1.70
2022-11-18T20:17:27.646Z,1.67
2022-11-18T20:19:55.934Z,2.07
2022-11-18T20:22:24.266Z,2.03
2022-11-18T20:24:52.609Z,1.80
2022-11-18T20:27:21.177Z,1.80
2022-11-18T20:29:49.481Z,1.50
2022-11-18T20:32:19.609Z,1.50
2022-11-18T20:34:48.407Z,1.70
2022-11-18T20:37:18.077Z,1.73
2022-11-18T20:39:46.490Z,1.77
2022-11-18T20:42:37.631Z,1.67
2022-11-18T20:45:06.323Z,1.77
2022-11-18T20:47:35.979Z,1.73
2022-11-18T20:50:04.406Z,1.53
2022-11-18T20:52:34.887Z,1.67
2022-11-18T20:55:05.801Z,1.67
2022-11-18T20:57:34.396Z,1.67
2022-11-18T21:00:02.525Z,1.60
2022-11-18T21:02:31.696Z,1.50
2022-11-18T21:05:01.387Z,1.90
2022-11-18T21:07:30.129Z,1.60
2022-11-18T21:09:58.715Z,1.67
2022-11-18T21:12:27.130Z,1.27
2022-11-18T21:14:54.448Z,1.40
2022-11-18T21:17:22.760Z,1.70
2022-11-18T21:19:51.141Z,1.60
2022-11-18T21:22:19.902Z,1.30
2022-11-18T21:24:48.380Z,1.40
2022-11-18T21:27:16.723Z,1.40
2022-11-18T21:29:46.745Z,1.70
2022-11-18T21:32:15.090Z,1.47
2022-11-18T21:34:43.376Z,1.80
2022-11-18T21:37:11.658Z,1.47
2022-11-18T21:39:41.128Z,1.67
2022-11-18T21:42:09.714Z,1.43
2022-11-18T21:44:38.185Z,1.70
2022-11-18T21:47:06.245Z,1.53
2022-11-18T21:49:34.593Z,1.87
2022-11-18T21:52:02.913Z,2.43
2022-11-18T21:54:32.311Z,1.93
2022-11-18T21:57:02.026Z,2.23
2022-11-18T21:59:30.362Z,2.20
2022-11-18T22:01:58.722Z,2.33
2022-11-18T22:04:44.166Z,2.80
2022-11-18T22:07:12.265Z,2.80
2022-11-18T22:09:40.633Z,2.73
2022-11-18T22:12:10.453Z,2.43
2022-11-18T22:14:38.795Z,2.80
2022-11-18T22:17:06.883Z,2.70
2022-11-18T22:19:35.572Z,3.57
2022-11-18T22:22:04.383Z,3.13
2022-11-18T22:24:32.584Z,3.07
2022-11-18T22:27:00.954Z,3.00
2022-11-18T22:29:30.448Z,3.40
2022-11-18T22:31:58.768Z,2.93
2022-11-18T22:34:28.603Z,2.97
2022-11-18T22:36:56.961Z,3.33
2022-11-18T22:39:25.297Z,3.03
2022-11-18T22:42:25.997Z,3.43
2022-11-18T22:44:55.745Z,3.73
2022-11-18T22:47:24.107Z,3.37
2022-11-18T22:49:56.377Z,3.50
2022-11-18T22:52:25.215Z,3.40
2022-11-18T22:54:53.618Z,3.43
2022-11-18T22:57:21.936Z,3.50
2022-11-18T22:59:50.345Z,4.37
2022-11-18T23:02:20.055Z,3.43
2022-11-18T23:04:48.143Z,3.17
2022-11-18T23:07:16.473Z,3.50
2022-11-18T23:09:44.986Z,3.63
2022-11-18T23:12:47.599Z,3.23
2022-11-18T23:15:16.231Z,3.30
2022-11-18T23:17:46.044Z,4.40
2022-11-18T23:20:14.360Z,4.00
2022-11-18T23:22:42.858Z,4.60
2022-11-18T23:25:11.410Z,4.40
2022-11-18T23:27:39.723Z,4.23
2022-11-18T23:30:08.715Z,5.00
2022-11-18T23:32:37.043Z,4.23
2022-11-18T23:35:07.274Z,4.67
2022-11-18T23:37:35.687Z,5.47
2022-11-18T23:40:04.141Z,5.07
2022-11-18T23:42:32.813Z,5.20
2022-11-18T23:45:05.198Z,5.03
2022-11-18T23:47:33.946Z,5.50
2022-11-18T23:50:02.288Z,5.53
2022-11-18T23:52:32.011Z,5.60
2022-11-18T23:55:01.527Z,5.87
2022-11-18T23:57:29.858Z,6.13
2022-11-18T23:59:58.295Z,7.20
